sensor_id;sensor_type;location;lat;lon;timestamp;temperature;humidity
40660;DHT22;26753;45.544;9.232;2022-07-29T00:02:04;27.00;99.90
40660;DHT22;26753;45.544;9.232;2022-07-29T00:04:30;27.00;99.90
40660;DHT22;26753;45.544;9.232;2022-07-29T00:06:57;27.00;99.90
40660;DHT22;26753;45.544;9.232;2022-07-29T00:09:22;26.90;99.90
40660;DHT22;26753;45.544;9.232;2022-07-29T00:11:48;26.90;99.90
40660;DHT22;26753;45.544;9.232;2022-07-29T00:14:14;27.00;99.90
40660;DHT22;26753;45.544;9.232;2022-07-29T00:16:39;27.00;99.90
40660;DHT22;26753;45.544;9.232;2022-07-29T00:19:05;26.90;99.90
40660;DHT22;26753;45.544;9.232;2022-07-29T00:21:31;26.80;99.90
40660;DHT22;26753;45.544;9.232;2022-07-29T00:23:56;26.80;99.90
40660;DHT22;26753;45.544;9.232;2022-07-29T00:26:23;26.80;99.90
40660;DHT22;26753;45.544;9.232;2022-07-29T00:28:48;26.70;99.90
40660;DHT22;26753;45.544;9.232;2022-07-29T00:31:14;26.70;99.90
40660;DHT22;26753;45.544;9.232;2022-07-29T00:33:40;26.70;99.90
40660;DHT22;26753;45.544;9.232;2022-07-29T00:36:06;26.70;99.90
40660;DHT22;26753;45.544;9.232;2022-07-29T00:38:31;26.60;99.90
40660;DHT22;26753;45.544;9.232;2022-07-29T00:40:57;26.50;99.90
40660;DHT22;26753;45.544;9.232;2022-07-29T00:43:23;26.30;99.90
40660;DHT22;26753;45.544;9.232;2022-07-29T00:45:49;26.20;99.90
40660;DHT22;26753;45.544;9.232;2022-07-29T00:48:14;26.00;99.90
40660;DHT22;26753;45.544;9.232;2022-07-29T00:50:40;25.80;99.90
40660;DHT22;26753;45.544;9.232;2022-07-29T00:53:07;25.70;99.90
40660;DHT22;26753;45.544;9.232;2022-07-29T00:55:33;25.50;99.90
40660;DHT22;26753;45.544;9.232;2022-07-29T00:57:59;25.40;99.90
40660;DHT22;26753;45.544;9.232;2022-07-29T01:00:27;25.50;99.90
40660;DHT22;26753;45.544;9.232;2022-07-29T01:02:53;25.50;99.90
40660;DHT22;26753;45.544;9.232;2022-07-29T01:05:21;25.40;99.90
40660;DHT22;26753;45.544;9.232;2022-07-29T01:07:51;25.50;99.90
40660;DHT22;26753;45.544;9.232;2022-07-29T01:10:19;25.50;99.90
40660;DHT22;26753;45.544;9.232;2022-07-29T01:12:47;25.60;99.90
40660;DHT22;26753;45.544;9.232;2022-07-29T01:15:13;25.70;99.90
40660;DHT22;26753;45.544;9.232;2022-07-29T01:20:56;25.60;99.90
40660;DHT22;26753;45.544;9.232;2022-07-29T01:31:08;26.20;99.90
40660;DHT22;26753;45.544;9.232;2022-07-29T01:33:42;26.20;99.90
40660;DHT22;26753;45.544;9.232;2022-07-29T01:36:23;26.10;99.90
40660;DHT22;26753;45.544;9.232;2022-07-29T01:39:26;26.00;99.90
40660;DHT22;26753;45.544;9.232;2022-07-29T01:42:20;25.80;99.90
40660;DHT22;26753;45.544;9.232;2022-07-29T01:45:13;25.70;99.90
40660;DHT22;26753;45.544;9.232;2022-07-29T01:47:56;25.80;99.90
40660;DHT22;26753;45.544;9.232;2022-07-29T01:50:31;25.90;99.90
40660;DHT22;26753;45.544;9.232;2022-07-29T01:53:05;26.00;99.90
40660;DHT22;26753;45.544;9.232;2022-07-29T01:55:35;26.10;99.90
40660;DHT22;26753;45.544;9.232;2022-07-29T01:58:04;26.20;99.90
40660;DHT22;26753;45.544;9.232;2022-07-29T02:00:32;26.10;99.90
40660;DHT22;26753;45.544;9.232;2022-07-29T02:03:00;26.00;99.90
40660;DHT22;26753;45.544;9.232;2022-07-29T02:05:29;25.80;99.90
40660;DHT22;26753;45.544;9.232;2022-07-29T02:07:58;25.60;99.90
40660;DHT22;26753;45.544;9.232;2022-07-29T02:10:28;25.60;99.90
40660;DHT22;26753;45.544;9.232;2022-07-29T02:12:56;25.60;99.90
40660;DHT22;26753;45.544;9.232;2022-07-29T02:15:24;25.70;99.90
40660;DHT22;26753;45.544;9.232;2022-07-29T02:17:55;25.70;99.90
40660;DHT22;26753;45.544;9.232;2022-07-29T02:20:23;25.60;99.90
40660;DHT22;26753;45.544;9.232;2022-07-29T02:22:51;25.60;99.90
40660;DHT22;26753;45.544;9.232;2022-07-29T02:25:18;25.70;99.90
40660;DHT22;26753;45.544;9.232;2022-07-29T02:27:47;25.70;99.90
40660;DHT22;26753;45.544;9.232;2022-07-29T02:30:14;25.60;99.90
40660;DHT22;26753;45.544;9.232;2022-07-29T02:32:41;25.60;99.90
40660;DHT22;26753;45.544;9.232;2022-07-29T02:35:09;25.40;99.90
40660;DHT22;26753;45.544;9.232;2022-07-29T02:37:36;25.30;99.90
40660;DHT22;26753;45.544;9.232;2022-07-29T02:40:03;25.30;99.90
40660;DHT22;26753;45.544;9.232;2022-07-29T02:42:31;25.20;99.90
40660;DHT22;26753;45.544;9.232;2022-07-29T02:44:59;25.10;99.90
40660;DHT22;26753;45.544;9.232;2022-07-29T02:47:33;25.20;99.90
40660;DHT22;26753;45.544;9.232;2022-07-29T02:50:29;25.10;99.90
40660;DHT22;26753;45.544;9.232;2022-07-29T02:53:05;25.00;99.90
40660;DHT22;26753;45.544;9.232;2022-07-29T02:55:39;25.00;99.90
40660;DHT22;26753;45.544;9.232;2022-07-29T02:58:21;25.00;99.90
40660;DHT22;26753;45.544;9.232;2022-07-29T03:00:49;25.00;99.90
40660;DHT22;26753;45.544;9.232;2022-07-29T03:03:18;25.00;99.90
40660;DHT22;26753;45.544;9.232;2022-07-29T03:05:44;25.10;99.90
40660;DHT22;26753;45.544;9.232;2022-07-29T03:08:11;25.10;99.90
40660;DHT22;26753;45.544;9.232;2022-07-29T03:10:39;25.10;99.90
40660;DHT22;26753;45.544;9.232;2022-07-29T03:13:05;25.10;99.90
40660;DHT22;26753;45.544;9.232;2022-07-29T03:15:33;25.00;99.90
40660;DHT22;26753;45.544;9.232;2022-07-29T03:17:59;24.90;99.90
40660;DHT22;26753;45.544;9.232;2022-07-29T03:20:26;24.90;99.90
40660;DHT22;26753;45.544;9.232;2022-07-29T03:22:52;25.00;99.90
40660;DHT22;26753;45.544;9.232;2022-07-29T03:25:19;25.00;99.90
40660;DHT22;26753;45.544;9.232;2022-07-29T03:27:45;25.00;99.90
40660;DHT22;26753;45.544;9.232;2022-07-29T03:30:12;24.90;99.90
40660;DHT22;26753;45.544;9.232;2022-07-29T03:32:38;25.00;99.90
40660;DHT22;26753;45.544;9.232;2022-07-29T03:35:05;25.00;99.90
40660;DHT22;26753;45.544;9.232;2022-07-29T03:37:31;25.00;99.90
40660;DHT22;26753;45.544;9.232;2022-07-29T03:39:59;25.10;99.90
40660;DHT22;26753;45.544;9.232;2022-07-29T03:42:30;25.20;99.90
40660;DHT22;26753;45.544;9.232;2022-07-29T03:44:58;25.20;99.90
40660;DHT22;26753;45.544;9.232;2022-07-29T03:47:27;25.10;99.90
40660;DHT22;26753;45.544;9.232;2022-07-29T03:49:59;25.00;99.90
40660;DHT22;26753;45.544;9.232;2022-07-29T03:52:25;25.00;99.90
40660;DHT22;26753;45.544;9.232;2022-07-29T03:54:52;25.00;99.90
40660;DHT22;26753;45.544;9.232;2022-07-29T03:57:20;25.00;99.90
40660;DHT22;26753;45.544;9.232;2022-07-29T03:59:48;25.10;99.90
40660;DHT22;26753;45.544;9.232;2022-07-29T04:02:14;25.10;99.90
40660;DHT22;26753;45.544;9.232;2022-07-29T04:04:42;25.10;99.90
40660;DHT22;26753;45.544;9.232;2022-07-29T04:07:12;25.30;99.90
40660;DHT22;26753;45.544;9.232;2022-07-29T04:09:38;25.20;99.90
40660;DHT22;26753;45.544;9.232;2022-07-29T04:12:05;25.20;99.90
40660;DHT22;26753;45.544;9.232;2022-07-29T04:14:32;25.30;99.90
40660;DHT22;26753;45.544;9.232;2022-07-29T04:16:58;25.50;99.90
40660;DHT22;26753;45.544;9.232;2022-07-29T04:19:23;25.50;99.90
40660;DHT22;26753;45.544;9.232;2022-07-29T04:21:50;25.40;99.90
40660;DHT22;26753;45.544;9.232;2022-07-29T04:24:16;25.30;99.90
40660;DHT22;26753;45.544;9.232;2022-07-29T04:26:45;25.20;99.90
40660;DHT22;26753;45.544;9.232;2022-07-29T04:29:10;25.20;99.90
40660;DHT22;26753;45.544;9.232;2022-07-29T04:31:37;25.20;99.90
40660;DHT22;26753;45.544;9.232;2022-07-29T04:34:03;25.20;99.90
40660;DHT22;26753;45.544;9.232;2022-07-29T04:36:29;25.20;99.90
40660;DHT22;26753;45.544;9.232;2022-07-29T04:38:54;25.10;99.90
40660;DHT22;26753;45.544;9.232;2022-07-29T04:41:20;25.30;99.90
40660;DHT22;26753;45.544;9.232;2022-07-29T04:43:45;25.40;99.90
40660;DHT22;26753;45.544;9.232;2022-07-29T04:46:11;25.50;99.90
40660;DHT22;26753;45.544;9.232;2022-07-29T04:48:37;25.70;99.90
40660;DHT22;26753;45.544;9.232;2022-07-29T04:51:02;25.70;99.90
40660;DHT22;26753;45.544;9.232;2022-07-29T04:53:28;25.70;99.90
40660;DHT22;26753;45.544;9.232;2022-07-29T04:55:54;25.70;99.90
40660;DHT22;26753;45.544;9.232;2022-07-29T04:58:20;25.80;99.90
40660;DHT22;26753;45.544;9.232;2022-07-29T05:00:45;25.80;99.90
40660;DHT22;26753;45.544;9.232;2022-07-29T05:03:11;25.80;99.90
40660;DHT22;26753;45.544;9.232;2022-07-29T05:05:36;25.90;99.90
40660;DHT22;26753;45.544;9.232;2022-07-29T05:08:02;26.00;99.90
40660;DHT22;26753;45.544;9.232;2022-07-29T05:10:28;25.90;99.90
40660;DHT22;26753;45.544;9.232;2022-07-29T05:12:54;25.80;99.90
40660;DHT22;26753;45.544;9.232;2022-07-29T05:15:19;25.90;99.90
40660;DHT22;26753;45.544;9.232;2022-07-29T05:17:45;25.90;99.90
40660;DHT22;26753;45.544;9.232;2022-07-29T05:20:11;25.90;99.90
40660;DHT22;26753;45.544;9.232;2022-07-29T05:22:36;25.90;99.90
40660;DHT22;26753;45.544;9.232;2022-07-29T05:25:02;25.90;99.90
40660;DHT22;26753;45.544;9.232;2022-07-29T05:27:28;25.90;99.90
40660;DHT22;26753;45.544;9.232;2022-07-29T05:29:54;26.00;99.90
40660;DHT22;26753;45.544;9.232;2022-07-29T05:32:20;26.00;99.90
40660;DHT22;26753;45.544;9.232;2022-07-29T05:34:45;26.00;99.90
40660;DHT22;26753;45.544;9.232;2022-07-29T05:37:11;26.00;99.90
40660;DHT22;26753;45.544;9.232;2022-07-29T05:39:39;26.10;99.90
40660;DHT22;26753;45.544;9.232;2022-07-29T05:42:10;26.10;99.90
40660;DHT22;26753;45.544;9.232;2022-07-29T05:44:37;26.30;99.90
40660;DHT22;26753;45.544;9.232;2022-07-29T05:47:03;26.40;99.90
40660;DHT22;26753;45.544;9.232;2022-07-29T05:49:29;26.50;99.90
40660;DHT22;26753;45.544;9.232;2022-07-29T05:51:54;26.60;99.90
40660;DHT22;26753;45.544;9.232;2022-07-29T05:54:20;26.80;99.90
40660;DHT22;26753;45.544;9.232;2022-07-29T05:56:46;26.80;99.90
40660;DHT22;26753;45.544;9.232;2022-07-29T05:59:11;26.90;99.90
40660;DHT22;26753;45.544;9.232;2022-07-29T06:01:37;27.00;99.90
40660;DHT22;26753;45.544;9.232;2022-07-29T06:04:05;27.10;99.90
40660;DHT22;26753;45.544;9.232;2022-07-29T06:06:32;27.20;99.90
40660;DHT22;26753;45.544;9.232;2022-07-29T06:08:57;27.20;99.90
40660;DHT22;26753;45.544;9.232;2022-07-29T06:11:23;27.40;99.90
40660;DHT22;26753;45.544;9.232;2022-07-29T06:13:48;27.50;99.90
40660;DHT22;26753;45.544;9.232;2022-07-29T06:16:14;27.60;99.90
40660;DHT22;26753;45.544;9.232;2022-07-29T06:18:40;27.70;99.90
40660;DHT22;26753;45.544;9.232;2022-07-29T06:21:09;27.70;99.90
40660;DHT22;26753;45.544;9.232;2022-07-29T06:23:36;27.80;99.90
40660;DHT22;26753;45.544;9.232;2022-07-29T06:26:02;27.90;99.90
40660;DHT22;26753;45.544;9.232;2022-07-29T06:28:27;27.80;99.90
40660;DHT22;26753;45.544;9.232;2022-07-29T06:30:53;27.90;99.90
40660;DHT22;26753;45.544;9.232;2022-07-29T06:33:19;28.00;99.90
40660;DHT22;26753;45.544;9.232;2022-07-29T06:35:45;28.00;99.90
40660;DHT22;26753;45.544;9.232;2022-07-29T06:38:13;28.20;99.90
40660;DHT22;26753;45.544;9.232;2022-07-29T06:40:46;28.20;99.90
40660;DHT22;26753;45.544;9.232;2022-07-29T06:43:37;28.20;99.90
40660;DHT22;26753;45.544;9.232;2022-07-29T06:46:07;28.10;99.90
40660;DHT22;26753;45.544;9.232;2022-07-29T06:48:35;28.20;99.90
40660;DHT22;26753;45.544;9.232;2022-07-29T06:51:04;28.30;99.90
40660;DHT22;26753;45.544;9.232;2022-07-29T06:53:31;28.40;99.90
40660;DHT22;26753;45.544;9.232;2022-07-29T06:55:59;28.50;99.90
40660;DHT22;26753;45.544;9.232;2022-07-29T06:58:26;28.60;99.90
40660;DHT22;26753;45.544;9.232;2022-07-29T07:00:52;28.60;99.90
40660;DHT22;26753;45.544;9.232;2022-07-29T07:03:18;28.80;99.90
40660;DHT22;26753;45.544;9.232;2022-07-29T07:05:45;28.90;99.90
40660;DHT22;26753;45.544;9.232;2022-07-29T07:08:11;29.00;99.90
40660;DHT22;26753;45.544;9.232;2022-07-29T07:10:37;29.10;99.90
40660;DHT22;26753;45.544;9.232;2022-07-29T07:13:04;29.10;99.90
40660;DHT22;26753;45.544;9.232;2022-07-29T07:15:30;29.20;99.90
40660;DHT22;26753;45.544;9.232;2022-07-29T07:17:56;29.20;99.90
40660;DHT22;26753;45.544;9.232;2022-07-29T07:20:22;29.20;99.90
40660;DHT22;26753;45.544;9.232;2022-07-29T07:22:47;29.20;99.90
40660;DHT22;26753;45.544;9.232;2022-07-29T07:25:13;29.40;99.90
40660;DHT22;26753;45.544;9.232;2022-07-29T07:27:39;29.40;99.90
40660;DHT22;26753;45.544;9.232;2022-07-29T07:30:06;29.50;99.90
40660;DHT22;26753;45.544;9.232;2022-07-29T07:32:33;29.40;99.90
40660;DHT22;26753;45.544;9.232;2022-07-29T07:34:58;29.30;99.90
40660;DHT22;26753;45.544;9.232;2022-07-29T07:37:25;29.30;99.90
40660;DHT22;26753;45.544;9.232;2022-07-29T07:39:53;29.40;99.90
40660;DHT22;26753;45.544;9.232;2022-07-29T07:42:19;29.60;99.90
40660;DHT22;26753;45.544;9.232;2022-07-29T07:44:45;29.70;99.90
40660;DHT22;26753;45.544;9.232;2022-07-29T07:47:12;29.90;99.90
40660;DHT22;26753;45.544;9.232;2022-07-29T07:49:38;30.10;99.90
40660;DHT22;26753;45.544;9.232;2022-07-29T07:52:04;30.00;99.90
40660;DHT22;26753;45.544;9.232;2022-07-29T07:54:30;30.10;99.90
40660;DHT22;26753;45.544;9.232;2022-07-29T07:56:56;30.20;99.90
40660;DHT22;26753;45.544;9.232;2022-07-29T07:59:22;30.40;99.90
40660;DHT22;26753;45.544;9.232;2022-07-29T08:01:48;30.30;99.90
40660;DHT22;26753;45.544;9.232;2022-07-29T08:04:14;30.10;99.90
40660;DHT22;26753;45.544;9.232;2022-07-29T08:06:40;30.00;99.90
40660;DHT22;26753;45.544;9.232;2022-07-29T08:09:05;30.00;99.90
40660;DHT22;26753;45.544;9.232;2022-07-29T08:11:32;30.20;99.90
40660;DHT22;26753;45.544;9.232;2022-07-29T08:13:57;30.40;99.90
40660;DHT22;26753;45.544;9.232;2022-07-29T08:16:23;30.50;99.90
40660;DHT22;26753;45.544;9.232;2022-07-29T08:18:51;30.60;99.90
40660;DHT22;26753;45.544;9.232;2022-07-29T08:21:17;30.70;99.90
40660;DHT22;26753;45.544;9.232;2022-07-29T08:23:46;30.80;99.90
40660;DHT22;26753;45.544;9.232;2022-07-29T08:26:15;31.00;99.90
40660;DHT22;26753;45.544;9.232;2022-07-29T08:28:42;31.00;99.90
40660;DHT22;26753;45.544;9.232;2022-07-29T08:31:12;31.00;99.90
40660;DHT22;26753;45.544;9.232;2022-07-29T08:33:38;31.00;99.90
40660;DHT22;26753;45.544;9.232;2022-07-29T08:36:05;30.90;99.90
40660;DHT22;26753;45.544;9.232;2022-07-29T08:38:31;30.80;99.90
40660;DHT22;26753;45.544;9.232;2022-07-29T08:40:58;30.70;99.90
40660;DHT22;26753;45.544;9.232;2022-07-29T08:43:25;30.90;99.90
40660;DHT22;26753;45.544;9.232;2022-07-29T08:45:51;31.10;99.90
40660;DHT22;26753;45.544;9.232;2022-07-29T08:48:22;31.20;99.90
40660;DHT22;26753;45.544;9.232;2022-07-29T08:50:52;31.20;99.90
40660;DHT22;26753;45.544;9.232;2022-07-29T08:53:19;31.20;99.90
40660;DHT22;26753;45.544;9.232;2022-07-29T08:55:48;31.40;99.90
40660;DHT22;26753;45.544;9.232;2022-07-29T08:58:15;31.70;99.90
40660;DHT22;26753;45.544;9.232;2022-07-29T09:00:46;31.80;99.90
40660;DHT22;26753;45.544;9.232;2022-07-29T09:03:16;31.80;99.90
40660;DHT22;26753;45.544;9.232;2022-07-29T09:05:43;31.80;99.90
40660;DHT22;26753;45.544;9.232;2022-07-29T09:08:10;31.90;99.90
40660;DHT22;26753;45.544;9.232;2022-07-29T09:10:36;32.00;99.90
40660;DHT22;26753;45.544;9.232;2022-07-29T09:13:02;32.10;99.90
40660;DHT22;26753;45.544;9.232;2022-07-29T09:15:28;32.10;99.90
40660;DHT22;26753;45.544;9.232;2022-07-29T09:17:54;32.10;99.90
40660;DHT22;26753;45.544;9.232;2022-07-29T09:20:22;32.10;99.90
40660;DHT22;26753;45.544;9.232;2022-07-29T09:22:49;32.30;99.90
40660;DHT22;26753;45.544;9.232;2022-07-29T09:25:34;32.30;99.90
40660;DHT22;26753;45.544;9.232;2022-07-29T09:33:17;31.90;99.20
40660;DHT22;26753;45.544;9.232;2022-07-29T09:35:43;31.90;99.30
40660;DHT22;26753;45.544;9.232;2022-07-29T09:38:13;32.10;99.00
40660;DHT22;26753;45.544;9.232;2022-07-29T09:40:39;32.30;98.90
40660;DHT22;26753;45.544;9.232;2022-07-29T09:43:12;32.60;98.60
40660;DHT22;26753;45.544;9.232;2022-07-29T09:45:39;33.00;97.90
40660;DHT22;26753;45.544;9.232;2022-07-29T09:48:22;33.10;97.90
40660;DHT22;26753;45.544;9.232;2022-07-29T09:50:48;33.40;97.00
40660;DHT22;26753;45.544;9.232;2022-07-29T09:53:38;33.50;97.00
40660;DHT22;26753;45.544;9.232;2022-07-29T09:56:05;33.70;96.30
40660;DHT22;26753;45.544;9.232;2022-07-29T09:58:31;33.90;96.30
40660;DHT22;26753;45.544;9.232;2022-07-29T10:00:59;34.00;96.10
40660;DHT22;26753;45.544;9.232;2022-07-29T10:03:27;33.90;95.80
40660;DHT22;26753;45.544;9.232;2022-07-29T10:06:10;34.10;95.80
40660;DHT22;26753;45.544;9.232;2022-07-29T10:08:36;34.40;95.10
40660;DHT22;26753;45.544;9.232;2022-07-29T10:11:13;34.50;95.10
40660;DHT22;26753;45.544;9.232;2022-07-29T10:13:40;34.50;94.50
40660;DHT22;26753;45.544;9.232;2022-07-29T10:16:06;34.50;94.50
40660;DHT22;26753;45.544;9.232;2022-07-29T10:18:32;34.40;94.50
40660;DHT22;26753;45.544;9.232;2022-07-29T10:20:59;34.20;94.30
40660;DHT22;26753;45.544;9.232;2022-07-29T10:23:30;34.00;94.30
40660;DHT22;26753;45.544;9.232;2022-07-29T10:25:56;33.90;94.40
40660;DHT22;26753;45.544;9.232;2022-07-29T10:28:22;33.90;94.50
40660;DHT22;26753;45.544;9.232;2022-07-29T10:30:50;33.90;94.50
40660;DHT22;26753;45.544;9.232;2022-07-29T10:36:22;33.90;94.20
40660;DHT22;26753;45.544;9.232;2022-07-29T10:39:11;34.10;93.90
40660;DHT22;26753;45.544;9.232;2022-07-29T10:41:56;34.20;94.30
40660;DHT22;26753;45.544;9.232;2022-07-29T10:44:25;34.40;94.20
40660;DHT22;26753;45.544;9.232;2022-07-29T10:46:52;34.50;94.10
40660;DHT22;26753;45.544;9.232;2022-07-29T10:49:23;34.50;94.00
40660;DHT22;26753;45.544;9.232;2022-07-29T10:54:40;34.40;93.80
40660;DHT22;26753;45.544;9.232;2022-07-29T10:59:38;34.60;93.70
40660;DHT22;26753;45.544;9.232;2022-07-29T11:05:00;34.70;93.60
40660;DHT22;26753;45.544;9.232;2022-07-29T11:07:27;34.30;94.00
40660;DHT22;26753;45.544;9.232;2022-07-29T11:15:12;34.30;93.90
40660;DHT22;26753;45.544;9.232;2022-07-29T11:20:40;34.80;93.80
40660;DHT22;26753;45.544;9.232;2022-07-29T11:29:01;35.20;93.00
40660;DHT22;26753;45.544;9.232;2022-07-29T11:31:42;35.60;92.70
40660;DHT22;26753;45.544;9.232;2022-07-29T11:34:29;35.70;92.20
40660;DHT22;26753;45.544;9.232;2022-07-29T11:45:00;36.40;91.80
40660;DHT22;26753;45.544;9.232;2022-07-29T11:47:28;36.90;91.30
40660;DHT22;26753;45.544;9.232;2022-07-29T11:49:55;37.10;91.10
40660;DHT22;26753;45.544;9.232;2022-07-29T11:52:22;37.10;90.90
40660;DHT22;26753;45.544;9.232;2022-07-29T11:54:50;36.90;90.80
40660;DHT22;26753;45.544;9.232;2022-07-29T11:57:19;36.50;90.80
40660;DHT22;26753;45.544;9.232;2022-07-29T11:59:46;36.30;91.00
40660;DHT22;26753;45.544;9.232;2022-07-29T12:02:13;36.00;91.10
40660;DHT22;26753;45.544;9.232;2022-07-29T12:04:53;36.00;91.30
40660;DHT22;26753;45.544;9.232;2022-07-29T12:07:40;35.80;91.50
40660;DHT22;26753;45.544;9.232;2022-07-29T12:10:08;35.70;91.50
40660;DHT22;26753;45.544;9.232;2022-07-29T12:12:34;35.60;91.50
40660;DHT22;26753;45.544;9.232;2022-07-29T12:15:17;35.50;91.60
40660;DHT22;26753;45.544;9.232;2022-07-29T12:17:45;35.60;91.50
40660;DHT22;26753;45.544;9.232;2022-07-29T12:20:10;35.60;91.50
40660;DHT22;26753;45.544;9.232;2022-07-29T12:22:40;35.70;91.40
40660;DHT22;26753;45.544;9.232;2022-07-29T12:25:14;35.80;91.20
40660;DHT22;26753;45.544;9.232;2022-07-29T12:27:42;36.00;91.00
40660;DHT22;26753;45.544;9.232;2022-07-29T12:30:15;36.30;91.00
40660;DHT22;26753;45.544;9.232;2022-07-29T12:32:48;36.70;90.60
40660;DHT22;26753;45.544;9.232;2022-07-29T12:35:14;37.00;90.10
40660;DHT22;26753;45.544;9.232;2022-07-29T12:37:42;37.10;90.10
40660;DHT22;26753;45.544;9.232;2022-07-29T12:40:10;37.30;89.90
40660;DHT22;26753;45.544;9.232;2022-07-29T12:42:36;37.40;89.60
40660;DHT22;26753;45.544;9.232;2022-07-29T12:45:03;37.10;90.00
40660;DHT22;26753;45.544;9.232;2022-07-29T12:47:29;37.10;90.00
40660;DHT22;26753;45.544;9.232;2022-07-29T12:50:14;37.30;89.90
40660;DHT22;26753;45.544;9.232;2022-07-29T12:52:43;37.70;88.90
40660;DHT22;26753;45.544;9.232;2022-07-29T12:55:10;38.00;88.70
40660;DHT22;26753;45.544;9.232;2022-07-29T12:57:49;38.50;88.00
40660;DHT22;26753;45.544;9.232;2022-07-29T13:00:23;38.80;86.80
40660;DHT22;26753;45.544;9.232;2022-07-29T13:02:59;38.80;85.80
40660;DHT22;26753;45.544;9.232;2022-07-29T13:05:39;38.70;86.10
40660;DHT22;26753;45.544;9.232;2022-07-29T13:08:16;38.40;85.60
40660;DHT22;26753;45.544;9.232;2022-07-29T13:10:46;38.60;85.80
40660;DHT22;26753;45.544;9.232;2022-07-29T13:13:15;38.40;85.90
40660;DHT22;26753;45.544;9.232;2022-07-29T13:15:43;38.20;86.20
40660;DHT22;26753;45.544;9.232;2022-07-29T13:18:34;38.50;85.90
40660;DHT22;26753;45.544;9.232;2022-07-29T13:21:14;38.80;85.00
40660;DHT22;26753;45.544;9.232;2022-07-29T13:23:40;39.50;84.30
40660;DHT22;26753;45.544;9.232;2022-07-29T13:26:10;39.50;83.70
40660;DHT22;26753;45.544;9.232;2022-07-29T13:28:37;39.20;84.00
40660;DHT22;26753;45.544;9.232;2022-07-29T13:31:03;39.10;84.20
40660;DHT22;26753;45.544;9.232;2022-07-29T13:33:29;39.70;83.60
40660;DHT22;26753;45.544;9.232;2022-07-29T13:35:55;39.80;83.00
40660;DHT22;26753;45.544;9.232;2022-07-29T13:38:21;40.10;82.80
40660;DHT22;26753;45.544;9.232;2022-07-29T13:40:47;40.40;82.00
40660;DHT22;26753;45.544;9.232;2022-07-29T13:43:13;40.80;81.50
40660;DHT22;26753;45.544;9.232;2022-07-29T13:45:38;41.00;80.60
40660;DHT22;26753;45.544;9.232;2022-07-29T13:48:04;40.20;81.00
40660;DHT22;26753;45.544;9.232;2022-07-29T13:50:31;39.30;81.70
40660;DHT22;26753;45.544;9.232;2022-07-29T13:52:58;38.50;82.60
40660;DHT22;26753;45.544;9.232;2022-07-29T13:55:23;37.90;83.60
40660;DHT22;26753;45.544;9.232;2022-07-29T13:57:49;37.50;84.00
40660;DHT22;26753;45.544;9.232;2022-07-29T14:00:15;37.50;84.50
40660;DHT22;26753;45.544;9.232;2022-07-29T14:02:42;37.60;84.40
40660;DHT22;26753;45.544;9.232;2022-07-29T14:05:08;37.40;84.50
40660;DHT22;26753;45.544;9.232;2022-07-29T14:07:35;36.90;84.70
40660;DHT22;26753;45.544;9.232;2022-07-29T14:10:01;36.80;85.10
40660;DHT22;26753;45.544;9.232;2022-07-29T14:12:27;37.00;85.00
40660;DHT22;26753;45.544;9.232;2022-07-29T14:14:53;37.20;84.60
40660;DHT22;26753;45.544;9.232;2022-07-29T14:17:18;37.10;84.50
40660;DHT22;26753;45.544;9.232;2022-07-29T14:19:44;36.80;84.90
40660;DHT22;26753;45.544;9.232;2022-07-29T14:22:09;36.20;85.00
40660;DHT22;26753;45.544;9.232;2022-07-29T14:24:36;36.20;85.30
40660;DHT22;26753;45.544;9.232;2022-07-29T14:27:02;36.40;85.30
40660;DHT22;26753;45.544;9.232;2022-07-29T14:29:28;36.40;85.30
40660;DHT22;26753;45.544;9.232;2022-07-29T14:31:54;35.90;85.50
40660;DHT22;26753;45.544;9.232;2022-07-29T14:34:20;35.60;86.00
40660;DHT22;26753;45.544;9.232;2022-07-29T14:36:45;35.50;86.60
40660;DHT22;26753;45.544;9.232;2022-07-29T14:39:11;35.50;86.40
40660;DHT22;26753;45.544;9.232;2022-07-29T14:41:37;35.40;86.70
40660;DHT22;26753;45.544;9.232;2022-07-29T14:44:08;35.70;86.30
40660;DHT22;26753;45.544;9.232;2022-07-29T14:46:33;35.30;86.50
40660;DHT22;26753;45.544;9.232;2022-07-29T14:48:59;35.10;87.00
40660;DHT22;26753;45.544;9.232;2022-07-29T14:51:25;34.90;87.40
40660;DHT22;26753;45.544;9.232;2022-07-29T14:53:50;34.60;87.70
40660;DHT22;26753;45.544;9.232;2022-07-29T14:56:16;34.70;87.90
40660;DHT22;26753;45.544;9.232;2022-07-29T14:58:41;34.60;87.90
40660;DHT22;26753;45.544;9.232;2022-07-29T15:01:07;34.80;87.80
40660;DHT22;26753;45.544;9.232;2022-07-29T15:03:33;35.10;87.50
40660;DHT22;26753;45.544;9.232;2022-07-29T15:05:58;35.30;87.10
40660;DHT22;26753;45.544;9.232;2022-07-29T15:08:24;35.20;87.10
40660;DHT22;26753;45.544;9.232;2022-07-29T15:10:50;35.20;87.30
40660;DHT22;26753;45.544;9.232;2022-07-29T15:13:16;35.10;87.30
40660;DHT22;26753;45.544;9.232;2022-07-29T15:15:42;34.70;87.50
40660;DHT22;26753;45.544;9.232;2022-07-29T15:18:07;34.40;87.70
40660;DHT22;26753;45.544;9.232;2022-07-29T15:20:35;34.20;88.20
40660;DHT22;26753;45.544;9.232;2022-07-29T15:23:01;34.00;88.40
40660;DHT22;26753;45.544;9.232;2022-07-29T15:25:27;33.80;88.50
40660;DHT22;26753;45.544;9.232;2022-07-29T15:27:52;33.40;89.50
40660;DHT22;26753;45.544;9.232;2022-07-29T15:30:18;33.10;90.10
40660;DHT22;26753;45.544;9.232;2022-07-29T15:32:44;32.90;90.40
40660;DHT22;26753;45.544;9.232;2022-07-29T15:35:10;32.80;90.50
40660;DHT22;26753;45.544;9.232;2022-07-29T15:37:37;32.60;90.70
40660;DHT22;26753;45.544;9.232;2022-07-29T15:40:05;32.50;91.00
40660;DHT22;26753;45.544;9.232;2022-07-29T15:42:32;32.30;91.20
40660;DHT22;26753;45.544;9.232;2022-07-29T15:45:00;32.20;91.50
40660;DHT22;26753;45.544;9.232;2022-07-29T15:47:28;31.70;93.80
40660;DHT22;26753;45.544;9.232;2022-07-29T15:49:54;31.30;96.90
40660;DHT22;26753;45.544;9.232;2022-07-29T15:52:20;30.70;99.90
40660;DHT22;26753;45.544;9.232;2022-07-29T15:54:46;29.70;99.90
40660;DHT22;26753;45.544;9.232;2022-07-29T15:57:12;28.90;99.90
40660;DHT22;26753;45.544;9.232;2022-07-29T15:59:38;28.50;99.90
40660;DHT22;26753;45.544;9.232;2022-07-29T16:02:03;28.50;99.90
40660;DHT22;26753;45.544;9.232;2022-07-29T16:04:29;28.20;99.90
40660;DHT22;26753;45.544;9.232;2022-07-29T16:06:56;28.20;99.90
40660;DHT22;26753;45.544;9.232;2022-07-29T16:09:22;28.30;99.90
40660;DHT22;26753;45.544;9.232;2022-07-29T16:11:48;28.30;99.90
40660;DHT22;26753;45.544;9.232;2022-07-29T16:14:17;28.50;99.90
40660;DHT22;26753;45.544;9.232;2022-07-29T16:16:43;28.60;99.90
40660;DHT22;26753;45.544;9.232;2022-07-29T16:19:09;28.70;99.90
40660;DHT22;26753;45.544;9.232;2022-07-29T16:21:35;28.70;99.90
40660;DHT22;26753;45.544;9.232;2022-07-29T16:24:02;28.70;99.90
40660;DHT22;26753;45.544;9.232;2022-07-29T16:26:28;28.70;99.90